createdAt,value
2023-03-29T00:00:03.040Z,1012.3
2023-03-29T00:01:03.504Z,1012.3
2023-03-29T00:02:03.127Z,1012.3
2023-03-29T00:03:03.405Z,1012.3
2023-03-29T00:04:03.318Z,1012.3
2023-03-29T00:05:03.116Z,1012.2
2023-03-29T00:06:03.362Z,1012.2
2023-03-29T00:07:03.101Z,1012.2
2023-03-29T00:08:03.106Z,1012.2
2023-03-29T00:09:03.111Z,1012.2
2023-03-29T00:10:03.132Z,1012.2
2023-03-29T00:11:03.780Z,1012.2
2023-03-29T00:12:03.135Z,1012.2
2023-03-29T00:13:03.186Z,1012.1
2023-03-29T00:14:03.164Z,1012.1
2023-03-29T00:15:03.176Z,1012.1
2023-03-29T00:16:03.182Z,1012.1
2023-03-29T00:17:03.249Z,1012.1
2023-03-29T00:18:03.354Z,1012.1
2023-03-29T00:19:03.226Z,1011.9
2023-03-29T00:20:03.227Z,1012.0
2023-03-29T00:21:03.661Z,1012.0
2023-03-29T00:22:03.263Z,1012.0
2023-03-29T00:23:03.258Z,1011.8
2023-03-29T00:24:03.270Z,1012.0
2023-03-29T00:25:03.277Z,1012.0
2023-03-29T00:26:07.230Z,1012.0
2023-03-29T00:27:03.303Z,1011.9
2023-03-29T00:28:03.317Z,1011.9
2023-03-29T00:29:03.321Z,1012.0
2023-03-29T00:30:03.335Z,1012.0
2023-03-29T00:31:03.981Z,1011.9
2023-03-29T00:32:03.352Z,1011.9
2023-03-29T00:33:03.477Z,1011.9
2023-03-29T00:34:03.370Z,1011.9
2023-03-29T00:35:03.388Z,1011.8
2023-03-29T00:36:03.485Z,1011.9
2023-03-29T00:37:03.409Z,1011.8
2023-03-29T00:38:03.405Z,1011.8
2023-03-29T00:39:03.422Z,1011.8
2023-03-29T00:57:04.084Z,1011.4
2023-03-29T00:58:03.624Z,1011.3
2023-03-29T00:59:03.656Z,1011.3
2023-03-29T01:00:03.662Z,1011.3
2023-03-29T01:01:04.122Z,1011.3
2023-03-29T01:02:03.808Z,1011.3
2023-03-29T01:03:04.005Z,1011.2
2023-03-29T01:04:03.748Z,1011.2
2023-03-29T01:05:03.705Z,1011.2
2023-03-29T01:06:03.713Z,1011.1
2023-03-29T01:07:03.904Z,1011.1
2023-03-29T01:08:03.733Z,1011.1
2023-03-29T01:09:03.757Z,1011.1
2023-03-29T01:10:03.773Z,1011.1
2023-03-29T01:11:04.255Z,1011.1
2023-03-29T01:12:03.785Z,1011.1
2023-03-29T01:13:03.834Z,1011.0
2023-03-29T01:14:03.850Z,1011.0
2023-03-29T01:15:03.827Z,1011.0
2023-03-29T01:16:03.949Z,1010.9
2023-03-29T01:17:03.839Z,1010.9
2023-03-29T01:18:03.936Z,1010.9
2023-03-29T01:19:03.854Z,1010.9
2023-03-29T01:20:03.870Z,1010.9
2023-03-29T01:21:04.245Z,1010.8
2023-03-29T01:22:03.917Z,1010.9
2023-03-29T01:23:03.919Z,1010.8
2023-03-29T01:24:03.916Z,1010.7
2023-03-29T01:25:03.983Z,1010.8
2023-03-29T01:26:03.955Z,1010.8
2023-03-29T01:27:03.953Z,1010.8
2023-03-29T01:28:04.003Z,1010.8
2023-03-29T01:29:03.991Z,1010.8
2023-03-29T01:30:04.013Z,1010.7
2023-03-29T01:31:04.274Z,1010.7
2023-03-29T01:32:04.129Z,1010.6
2023-03-29T01:33:04.095Z,1010.6
2023-03-29T01:34:04.077Z,1010.7
2023-03-29T01:35:04.064Z,1010.7
2023-03-29T01:36:04.142Z,1010.7
2023-03-29T01:37:04.076Z,1010.7
2023-03-29T01:38:04.090Z,1010.7
2023-03-29T01:39:04.082Z,1010.6
2023-03-29T01:40:04.139Z,1010.7
2023-03-29T01:41:04.748Z,1010.7
2023-03-29T01:42:04.119Z,1010.6
2023-03-29T01:43:04.164Z,1010.6
2023-03-29T01:44:04.136Z,1010.5
2023-03-29T01:45:04.154Z,1010.6
2023-03-29T01:46:04.258Z,1010.5
2023-03-29T01:47:04.167Z,1010.5
2023-03-29T01:48:04.230Z,1010.4
2023-03-29T01:49:04.191Z,1010.5
2023-03-29T01:50:04.192Z,1010.5
2023-03-29T01:51:04.762Z,1010.5
2023-03-29T01:52:04.236Z,1010.5
2023-03-29T01:53:04.284Z,1010.5
2023-03-29T01:54:04.220Z,1010.4
2023-03-29T01:55:04.232Z,1010.5
2023-03-29T01:56:04.242Z,1010.3
2023-03-29T01:57:04.359Z,1010.4
2023-03-29T01:58:04.268Z,1010.3
2023-03-29T01:59:04.267Z,1010.4
2023-03-29T02:00:04.281Z,1010.3
2023-03-29T02:01:04.865Z,1010.3
2023-03-29T02:02:04.428Z,1010.2
2023-03-29T02:03:04.604Z,1010.3
2023-03-29T02:04:04.333Z,1010.2
2023-03-29T02:05:04.327Z,1010.3
2023-03-29T02:06:04.339Z,1010.3
2023-03-29T02:07:04.331Z,1010.2
2023-03-29T02:08:04.378Z,1010.2
2023-03-29T02:09:04.353Z,1010.2
2023-03-29T02:10:04.374Z,1010.2
2023-03-29T02:11:04.888Z,1010.2
2023-03-29T02:12:04.421Z,1010.2
2023-03-29T02:13:04.413Z,1010.1
2023-03-29T02:14:04.428Z,1010.1
2023-03-29T02:15:04.439Z,1010.1
2023-03-29T02:16:04.558Z,1010.1
2023-03-29T02:17:04.459Z,1010.1
2023-03-29T02:18:04.533Z,1010.1
2023-03-29T02:19:04.503Z,1010.0
2023-03-29T02:20:04.575Z,1010.0
2023-03-29T02:21:04.761Z,1010.0
2023-03-29T02:22:04.538Z,1010.0
2023-03-29T02:23:04.573Z,1010.0
2023-03-29T02:24:04.547Z,1010.0
2023-03-29T02:25:04.565Z,1009.9
2023-03-29T02:26:04.564Z,1010.0
2023-03-29T02:27:04.603Z,1010.0
2023-03-29T02:28:04.602Z,1010.0
2023-03-29T02:29:04.604Z,1010.0
2023-03-29T02:30:04.607Z,1010.0
2023-03-29T02:31:05.261Z,1010.0
2023-03-29T02:32:04.631Z,1010.0
2023-03-29T02:33:04.804Z,1010.0
2023-03-29T02:34:04.646Z,1009.9
2023-03-29T02:35:04.650Z,1010.0
2023-03-29T02:36:04.834Z,1009.9
2023-03-29T02:37:04.688Z,1009.9
2023-03-29T02:38:04.708Z,1009.9
2023-03-29T02:39:04.719Z,1009.9
2023-03-29T02:40:04.722Z,1009.9
2023-03-29T02:41:04.735Z,1010.0
2023-03-29T02:42:04.741Z,1010.0
2023-03-29T02:43:04.758Z,1009.8
2023-03-29T02:44:04.767Z,1009.9
2023-03-29T02:45:04.777Z,1009.9
2023-03-29T02:46:04.852Z,1009.8
2023-03-29T02:47:04.794Z,1009.9
2023-03-29T02:48:04.963Z,1009.8
2023-03-29T02:49:04.824Z,1009.8
2023-03-29T02:50:04.832Z,1009.8
2023-03-29T02:51:04.976Z,1009.8
2023-03-29T02:52:04.851Z,1009.8
2023-03-29T02:53:04.862Z,1009.8
2023-03-29T02:54:04.877Z,1009.7
2023-03-29T02:55:04.889Z,1009.7
2023-03-29T02:56:04.911Z,1009.8
2023-03-29T02:57:05.008Z,1009.6
2023-03-29T02:58:04.927Z,1009.6
2023-03-29T02:59:04.942Z,1009.6
2023-03-29T03:00:04.956Z,1009.5
2023-03-29T03:01:04.972Z,1009.5
2023-03-29T03:02:05.059Z,1009.5
2023-03-29T03:03:05.254Z,1009.4
2023-03-29T03:04:05.139Z,1009.4
2023-03-29T03:05:05.017Z,1009.5
2023-03-29T03:06:05.032Z,1009.5
2023-03-29T03:07:05.045Z,1009.5
2023-03-29T03:08:05.056Z,1009.4
2023-03-29T03:09:05.063Z,1009.5
2023-03-29T03:10:05.097Z,1009.5
2023-03-29T03:11:05.085Z,1009.5
2023-03-29T03:12:05.096Z,1009.5
2023-03-29T03:13:12.911Z,1009.4
2023-03-29T03:14:05.121Z,1009.5
2023-03-29T03:15:05.120Z,1009.4
2023-03-29T03:16:05.343Z,1009.5
2023-03-29T03:17:05.168Z,1009.3
2023-03-29T03:18:05.310Z,1009.4
2023-03-29T03:19:05.287Z,1009.4
2023-03-29T03:20:05.180Z,1009.4
2023-03-29T03:21:05.335Z,1009.4
2023-03-29T03:22:05.216Z,1009.3
2023-03-29T03:23:05.235Z,1009.3
2023-03-29T03:24:05.239Z,1009.3
2023-03-29T03:25:05.240Z,1009.3
2023-03-29T03:26:05.246Z,1009.3
2023-03-29T03:27:05.266Z,1009.3
2023-03-29T03:28:05.270Z,1009.3
2023-03-29T03:29:05.290Z,1009.3
2023-03-29T03:30:05.293Z,1009.2
2023-03-29T03:31:05.297Z,1009.2
2023-03-29T03:32:05.594Z,1009.3
2023-03-29T03:33:05.370Z,1009.3
2023-03-29T03:34:05.333Z,1009.2
2023-03-29T03:35:05.344Z,1009.2
2023-03-29T03:36:05.424Z,1009.3
2023-03-29T03:37:05.357Z,1009.2
2023-03-29T03:38:05.360Z,1009.2
2023-03-29T03:39:05.375Z,1009.2
2023-03-29T03:40:05.385Z,1009.2
2023-03-29T03:41:06.226Z,1009.2
2023-03-29T03:42:08.614Z,1009.1
2023-03-29T03:43:05.420Z,1009.2
2023-03-29T03:44:05.433Z,1009.2
2023-03-29T03:45:05.478Z,1009.2
2023-03-29T03:46:05.546Z,1009.2
2023-03-29T03:47:05.494Z,1009.2
2023-03-29T03:48:05.561Z,1009.2
2023-03-29T03:49:05.491Z,1009.2
2023-03-29T03:50:05.513Z,1009.1
2023-03-29T03:51:05.512Z,1009.2
2023-03-29T03:52:05.521Z,1009.1
2023-03-29T03:53:05.551Z,1009.1
2023-03-29T03:54:05.551Z,1009.2
2023-03-29T03:55:05.569Z,1009.1
2023-03-29T03:56:05.570Z,1009.1
2023-03-29T03:57:05.675Z,1009.0
2023-03-29T03:58:05.630Z,1009.1
2023-03-29T03:59:05.670Z,1009.0
2023-03-29T04:00:05.619Z,1009.0
2023-03-29T04:01:05.676Z,1009.0
2023-03-29T04:02:05.744Z,1009.0
2023-03-29T04:03:06.119Z,1009.0
2023-03-29T04:04:05.734Z,1008.9
2023-03-29T04:05:05.690Z,1008.9
2023-03-29T04:06:05.699Z,1008.9
2023-03-29T04:07:05.721Z,1008.9
2023-03-29T04:08:05.737Z,1008.9
2023-03-29T04:09:05.747Z,1008.9
2023-03-29T04:10:05.784Z,1009.0
2023-03-29T04:11:05.798Z,1008.9
2023-03-29T04:12:05.797Z,1009.0
2023-03-29T04:13:05.823Z,1008.9
2023-03-29T04:14:05.821Z,1008.9
2023-03-29T04:15:05.844Z,1008.9
2023-03-29T04:16:05.932Z,1009.0
2023-03-29T04:17:05.868Z,1009.0
2023-03-29T04:18:06.027Z,1009.0
2023-03-29T04:19:05.871Z,1009.0
2023-03-29T04:20:05.879Z,1009.0
2023-03-29T04:21:05.900Z,1009.0
2023-03-29T04:22:05.893Z,1009.0
2023-03-29T04:23:05.912Z,1009.0
2023-03-29T04:24:05.932Z,1009.0
2023-03-29T04:25:05.940Z,1009.0
2023-03-29T04:26:05.956Z,1009.0
2023-03-29T04:27:05.974Z,1009.0
2023-03-29T04:28:05.986Z,1009.0
2023-03-29T04:29:06.003Z,1008.9
2023-03-29T04:30:06.014Z,1008.9
2023-03-29T04:31:06.353Z,1008.9
2023-03-29T04:32:06.021Z,1009.0
2023-03-29T04:33:06.200Z,1008.9
2023-03-29T04:34:06.056Z,1008.8
2023-03-29T04:35:06.081Z,1008.9
2023-03-29T04:36:06.201Z,1008.9
2023-03-29T04:37:06.091Z,1008.9
2023-03-29T04:38:06.105Z,1008.9
2023-03-29T04:39:06.105Z,1008.9
2023-03-29T04:40:06.120Z,1008.9
2023-03-29T04:41:06.145Z,1009.0
2023-03-29T04:42:06.158Z,1009.0
2023-03-29T04:43:06.175Z,1009.0
2023-03-29T04:44:06.187Z,1008.9
2023-03-29T04:45:06.336Z,1008.9
2023-03-29T04:46:06.247Z,1008.9
2023-03-29T04:47:06.221Z,1008.8
2023-03-29T04:48:06.300Z,1008.9
2023-03-29T04:49:06.233Z,1008.8
2023-03-29T04:50:06.407Z,1008.9
2023-03-29T04:51:06.275Z,1008.8
2023-03-29T04:52:06.274Z,1008.9
2023-03-29T04:53:06.300Z,1008.8
2023-03-29T04:54:06.294Z,1008.9
2023-03-29T04:55:06.328Z,1008.8
2023-03-29T04:56:06.323Z,1008.9
2023-03-29T04:57:06.446Z,1008.8
2023-03-29T04:58:06.356Z,1008.8
2023-03-29T04:59:06.370Z,1008.8
2023-03-29T05:00:06.384Z,1008.8
2023-03-29T05:01:06.398Z,1008.8
2023-03-29T05:02:06.488Z,1008.8
2023-03-29T05:03:06.561Z,1008.8
2023-03-29T05:04:06.487Z,1008.7
2023-03-29T05:05:06.442Z,1008.8
2023-03-29T05:06:06.449Z,1008.8
2023-03-29T05:07:06.466Z,1008.7
2023-03-29T05:08:06.468Z,1008.7
2023-03-29T05:09:06.469Z,1008.7
2023-03-29T05:10:06.480Z,1008.6
2023-03-29T05:11:06.490Z,1008.7
2023-03-29T05:12:06.512Z,1008.6
2023-03-29T05:13:06.525Z,1008.7
2023-03-29T05:14:06.537Z,1008.7
2023-03-29T05:15:06.524Z,1008.7
2023-03-29T05:16:06.600Z,1008.7
2023-03-29T05:17:06.858Z,1008.7
2023-03-29T05:18:06.713Z,1008.7
2023-03-29T05:19:06.600Z,1008.7
2023-03-29T05:20:06.600Z,1008.7
2023-03-29T05:21:06.593Z,1008.7
2023-03-29T05:22:06.636Z,1008.6
2023-03-29T05:23:06.624Z,1008.6
2023-03-29T05:24:06.650Z,1008.6
2023-03-29T05:25:06.657Z,1008.7
2023-03-29T05:26:06.664Z,1008.7
2023-03-29T05:27:06.680Z,1008.6
2023-03-29T05:28:06.703Z,1008.6
2023-03-29T05:29:06.707Z,1008.7
2023-03-29T05:30:06.726Z,1008.7
2023-03-29T05:31:06.793Z,1008.7
2023-03-29T05:32:07.006Z,1008.7
2023-03-29T05:33:06.791Z,1008.8
2023-03-29T05:34:06.773Z,1008.7
2023-03-29T05:35:06.788Z,1008.7
2023-03-29T05:36:06.884Z,1008.7
2023-03-29T05:37:06.826Z,1008.7
2023-03-29T05:38:06.821Z,1008.7
2023-03-29T05:39:06.890Z,1008.7
2023-03-29T05:40:06.846Z,1008.6
2023-03-29T05:41:06.857Z,1008.6
2023-03-29T05:42:06.866Z,1008.6
2023-03-29T05:43:06.917Z,1008.6
2023-03-29T05:44:06.873Z,1008.6
2023-03-29T05:45:06.922Z,1008.5
2023-03-29T05:46:06.977Z,1008.6
2023-03-29T05:47:06.906Z,1008.6
2023-03-29T05:48:07.027Z,1008.5
2023-03-29T05:49:06.939Z,1008.5
2023-03-29T05:50:06.946Z,1008.4
2023-03-29T05:51:06.953Z,1008.5
2023-03-29T05:52:06.972Z,1008.5
2023-03-29T05:53:06.975Z,1008.5
2023-03-29T05:54:07.002Z,1008.5
2023-03-29T05:55:07.011Z,1008.5
2023-03-29T05:56:07.026Z,1008.5
2023-03-29T05:57:07.135Z,1008.5
2023-03-29T05:58:07.053Z,1008.4
2023-03-29T05:59:07.065Z,1008.4
2023-03-29T06:00:07.103Z,1008.4
2023-03-29T06:01:07.086Z,1008.4
2023-03-29T06:02:07.200Z,1008.3
2023-03-29T06:04:07.199Z,1008.4
2023-03-29T06:05:07.359Z,1008.4
2023-03-29T06:06:07.156Z,1008.4
2023-03-29T06:07:07.191Z,1008.4
2023-03-29T06:08:07.207Z,1008.5
2023-03-29T06:09:07.176Z,1008.4
2023-03-29T06:10:07.196Z,1008.4
2023-03-29T06:11:07.681Z,1008.4
2023-03-29T06:12:07.218Z,1008.3
2023-03-29T06:13:07.227Z,1008.3
2023-03-29T06:14:07.229Z,1008.3
2023-03-29T06:15:07.248Z,1008.3
2023-03-29T06:16:07.266Z,1008.4
2023-03-29T06:17:07.382Z,1008.4
2023-03-29T06:18:07.377Z,1008.5
2023-03-29T06:19:07.288Z,1008.4
2023-03-29T06:20:07.322Z,1008.4
2023-03-29T06:21:07.317Z,1008.3
2023-03-29T06:22:07.332Z,1008.3
2023-03-29T06:23:07.344Z,1008.4
2023-03-29T06:24:07.424Z,1008.4
2023-03-29T06:25:07.372Z,1008.4
2023-03-29T06:26:07.401Z,1008.4
2023-03-29T06:27:07.432Z,1008.4
2023-03-29T06:28:07.537Z,1008.4
2023-03-29T06:29:07.428Z,1008.4
2023-03-29T06:30:07.431Z,1008.4
2023-03-29T06:31:07.823Z,1008.5
2023-03-29T06:32:07.478Z,1008.4
2023-03-29T06:33:07.590Z,1008.4
2023-03-29T06:34:07.500Z,1008.4
2023-03-29T06:35:07.517Z,1008.4
2023-03-29T06:36:07.622Z,1008.5
2023-03-29T06:37:07.531Z,1008.5
2023-03-29T06:38:07.555Z,1008.5
2023-03-29T06:39:07.565Z,1008.5
2023-03-29T06:40:07.574Z,1008.5
2023-03-29T06:41:07.701Z,1008.5
2023-03-29T06:42:21.391Z,1008.5
2023-03-29T06:43:07.618Z,1008.6
2023-03-29T06:44:07.641Z,1008.6
2023-03-29T06:45:07.636Z,1008.6
2023-03-29T06:46:07.705Z,1008.6
2023-03-29T06:47:07.659Z,1008.7
2023-03-29T06:48:08.237Z,1008.5
2023-03-29T06:49:07.699Z,1008.5
2023-03-29T06:50:08.108Z,1008.6
2023-03-29T06:51:07.774Z,1008.5
2023-03-29T06:52:07.751Z,1008.5
2023-03-29T06:53:07.755Z,1008.5
2023-03-29T06:54:07.809Z,1008.5
2023-03-29T06:55:07.819Z,1008.5
2023-03-29T06:56:07.781Z,1008.5
2023-03-29T06:57:08.019Z,1008.4
2023-03-29T06:58:07.790Z,1008.5
2023-03-29T06:59:07.794Z,1008.5
2023-03-29T07:00:07.819Z,1008.4
2023-03-29T07:01:07.819Z,1008.5
2023-03-29T07:02:07.916Z,1008.4
2023-03-29T07:03:08.001Z,1008.4
2023-03-29T07:04:08.349Z,1008.4
2023-03-29T07:05:07.848Z,1008.4
2023-03-29T07:06:07.857Z,1008.4
2023-03-29T07:07:07.869Z,1008.3
2023-03-29T07:08:07.900Z,1008.4
2023-03-29T07:09:07.940Z,1008.4
2023-03-29T07:10:07.907Z,1008.5
2023-03-29T07:11:07.938Z,1008.4
2023-03-29T07:12:07.953Z,1008.5
2023-03-29T07:13:07.961Z,1008.4
2023-03-29T07:14:08.010Z,1008.5
2023-03-29T07:15:07.981Z,1008.4
2023-03-29T07:16:08.071Z,1008.5
2023-03-29T07:17:08.010Z,1008.5
2023-03-29T07:18:08.164Z,1008.5
2023-03-29T07:19:08.149Z,1008.5
2023-03-29T07:20:08.046Z,1008.5
2023-03-29T07:21:08.068Z,1008.5
2023-03-29T07:22:08.093Z,1008.5
2023-03-29T07:23:08.116Z,1008.5
2023-03-29T07:24:08.139Z,1008.6
2023-03-29T07:25:08.110Z,1008.6
2023-03-29T07:26:08.133Z,1008.6
2023-03-29T07:27:08.128Z,1008.5
2023-03-29T07:28:08.143Z,1008.5
2023-03-29T07:29:08.285Z,1008.5
2023-03-29T07:30:08.180Z,1008.5
2023-03-29T07:31:08.181Z,1008.5
2023-03-29T07:32:08.218Z,1008.5
2023-03-29T07:33:08.376Z,1008.4
2023-03-29T07:34:08.209Z,1008.4
2023-03-29T07:35:08.228Z,1008.4
2023-03-29T07:36:08.323Z,1008.3
2023-03-29T07:37:08.222Z,1008.3
2023-03-29T07:38:08.260Z,1008.3
2023-03-29T07:39:08.258Z,1008.4
2023-03-29T07:40:08.357Z,1008.4
2023-03-29T07:41:08.367Z,1008.3
2023-03-29T07:42:08.309Z,1008.3
2023-03-29T07:43:08.311Z,1008.4
2023-03-29T07:44:08.327Z,1008.4
2023-03-29T07:45:08.531Z,1008.4
2023-03-29T07:46:08.420Z,1008.4
2023-03-29T07:47:08.337Z,1008.4
2023-03-29T07:48:08.561Z,1008.4
2023-03-29T07:49:08.400Z,1008.3
2023-03-29T07:50:08.428Z,1008.4
2023-03-29T07:51:08.505Z,1008.4
2023-03-29T07:52:08.445Z,1008.5
2023-03-29T07:53:08.429Z,1008.4
2023-03-29T07:54:08.467Z,1008.4
2023-03-29T07:55:08.479Z,1008.4
2023-03-29T07:56:08.643Z,1008.4
2023-03-29T07:57:08.590Z,1008.4
2023-03-29T07:58:08.496Z,1008.4
2023-03-29T07:59:08.487Z,1008.4
2023-03-29T08:00:08.515Z,1008.4
2023-03-29T08:01:08.778Z,1008.3
2023-03-29T08:02:08.511Z,1008.3
2023-03-29T08:03:08.735Z,1008.4
2023-03-29T08:04:08.935Z,1008.3
2023-03-29T08:05:08.747Z,1008.4
2023-03-29T08:06:08.585Z,1008.4
2023-03-29T08:07:08.606Z,1008.4
2023-03-29T08:08:08.601Z,1008.3
2023-03-29T08:09:08.625Z,1008.4
2023-03-29T08:10:08.649Z,1008.4
2023-03-29T08:11:08.641Z,1008.3
2023-03-29T08:12:08.664Z,1008.3
2023-03-29T08:13:08.648Z,1008.3
2023-03-29T08:14:08.670Z,1008.2
2023-03-29T08:15:08.716Z,1008.3
2023-03-29T08:16:08.747Z,1008.2
2023-03-29T08:17:08.803Z,1008.3
2023-03-29T08:18:08.946Z,1008.2
2023-03-29T08:19:08.736Z,1008.2
2023-03-29T08:20:08.765Z,1008.2
2023-03-29T08:21:08.779Z,1008.2
2023-03-29T08:22:08.765Z,1008.2
2023-03-29T08:23:08.790Z,1008.1
2023-03-29T08:24:08.798Z,1008.2
2023-03-29T08:25:08.818Z,1008.2
2023-03-29T08:26:08.857Z,1008.1
2023-03-29T08:27:09.029Z,1008.2
2023-03-29T08:28:08.848Z,1008.2
2023-03-29T08:29:08.856Z,1008.1
2023-03-29T08:30:08.876Z,1008.1
2023-03-29T08:31:08.967Z,1008.2
2023-03-29T08:32:08.930Z,1008.2
2023-03-29T08:33:08.988Z,1008.2
2023-03-29T08:34:08.928Z,1008.1
2023-03-29T08:35:08.921Z,1008.1
2023-03-29T08:36:09.108Z,1008.0
2023-03-29T08:37:08.957Z,1007.9
2023-03-29T08:38:08.978Z,1008.0
2023-03-29T08:39:08.985Z,1007.9
2023-03-29T08:40:09.031Z,1008.0
2023-03-29T08:41:09.044Z,1008.0
2023-03-29T08:42:09.085Z,1008.0
2023-03-29T08:43:09.077Z,1008.0
2023-03-29T08:44:09.109Z,1008.0
2023-03-29T08:45:09.094Z,1007.9
2023-03-29T08:46:09.185Z,1008.0
2023-03-29T08:47:09.110Z,1008.0
2023-03-29T08:48:09.132Z,1008.0
2023-03-29T08:49:09.148Z,1008.0
2023-03-29T08:50:09.156Z,1008.0
2023-03-29T08:51:10.420Z,1008.0
2023-03-29T08:52:09.189Z,1008.0
2023-03-29T08:53:09.199Z,1008.0
2023-03-29T08:54:09.197Z,1008.0
2023-03-29T08:55:09.200Z,1008.0
2023-03-29T08:56:09.216Z,1008.0
2023-03-29T08:57:09.300Z,1007.9
2023-03-29T08:58:09.223Z,1008.0
2023-03-29T08:59:09.234Z,1008.0
2023-03-29T09:00:09.269Z,1008.0
2023-03-29T09:01:09.301Z,1008.0
2023-03-29T09:02:09.350Z,1008.1
2023-03-29T09:03:09.453Z,1008.0
2023-03-29T09:04:09.465Z,1008.1
2023-03-29T09:05:09.312Z,1008.0
2023-03-29T09:06:09.329Z,1008.0
2023-03-29T09:07:09.437Z,1008.0
2023-03-29T09:08:09.350Z,1008.2
2023-03-29T09:09:09.395Z,1008.0
2023-03-29T09:10:09.363Z,1008.0
2023-03-29T09:11:09.375Z,1008.0
2023-03-29T09:12:09.380Z,1008.1
2023-03-29T09:13:09.425Z,1008.1
2023-03-29T09:14:09.395Z,1008.0
2023-03-29T09:15:09.417Z,1008.0
2023-03-29T09:16:09.433Z,1008.0
2023-03-29T09:17:09.400Z,1008.0
2023-03-29T09:18:09.603Z,1008.0
2023-03-29T09:19:09.420Z,1007.9
2023-03-29T09:20:09.485Z,1007.9
2023-03-29T09:21:09.446Z,1007.8
2023-03-29T09:22:09.450Z,1007.9
2023-03-29T09:23:09.456Z,1007.9
2023-03-29T09:24:09.464Z,1007.9
2023-03-29T09:25:09.472Z,1007.9
2023-03-29T09:26:09.489Z,1007.8
2023-03-29T09:27:09.577Z,1007.8
2023-03-29T09:28:09.498Z,1007.8
2023-03-29T09:29:09.951Z,1007.8
2023-03-29T09:30:09.525Z,1007.7
2023-03-29T09:31:09.590Z,1007.8
2023-03-29T09:32:09.533Z,1007.8
2023-03-29T09:33:09.598Z,1007.8
2023-03-29T09:34:09.586Z,1007.8
2023-03-29T09:35:09.552Z,1007.8
2023-03-29T09:36:09.661Z,1007.8
2023-03-29T09:37:09.569Z,1007.8
2023-03-29T09:38:09.582Z,1007.8
2023-03-29T09:39:09.575Z,1007.8
2023-03-29T09:40:09.589Z,1007.9
2023-03-29T09:41:09.595Z,1007.7
2023-03-29T09:42:09.597Z,1007.8
2023-03-29T09:43:09.614Z,1007.8
2023-03-29T09:44:30.065Z,1007.8
2023-03-29T09:45:09.624Z,1007.8
2023-03-29T09:46:09.679Z,1007.7
2023-03-29T09:47:09.629Z,1007.7
2023-03-29T09:48:09.732Z,1007.8
2023-03-29T09:49:09.657Z,1007.8
2023-03-29T09:50:29.958Z,1007.8
2023-03-29T09:51:09.656Z,1007.8
2023-03-29T09:52:09.663Z,1007.8
2023-03-29T09:53:09.675Z,1007.8
2023-03-29T09:54:09.679Z,1007.7
2023-03-29T09:55:09.735Z,1007.7
2023-03-29T09:56:09.680Z,1007.7
2023-03-29T09:57:09.823Z,1007.6
2023-03-29T09:58:09.710Z,1007.7
2023-03-29T09:59:10.089Z,1007.7
2023-03-29T10:00:09.709Z,1007.7
2023-03-29T10:01:09.772Z,1007.7
2023-03-29T10:02:09.746Z,1007.6
2023-03-29T10:03:11.027Z,1007.6
2023-03-29T10:04:09.821Z,1007.6
2023-03-29T10:05:09.741Z,1007.6
2023-03-29T10:06:09.767Z,1007.6
2023-03-29T10:07:09.763Z,1007.6
2023-03-29T10:08:09.773Z,1007.5
2023-03-29T10:09:09.766Z,1007.5
2023-03-29T10:10:09.784Z,1007.5
2023-03-29T10:11:09.789Z,1007.5
2023-03-29T10:12:09.881Z,1007.5
2023-03-29T10:13:09.785Z,1007.5
2023-03-29T10:14:09.791Z,1007.5
2023-03-29T10:15:28.983Z,1007.4
2023-03-29T10:16:10.001Z,1007.5
2023-03-29T10:17:09.823Z,1007.5
2023-03-29T10:18:09.875Z,1007.6
2023-03-29T10:19:09.828Z,1007.5
2023-03-29T10:20:10.297Z,1007.5
2023-03-29T10:21:09.829Z,1007.5
2023-03-29T10:22:09.860Z,1007.5
2023-03-29T10:23:09.852Z,1007.5
2023-03-29T10:24:09.864Z,1007.6
2023-03-29T10:25:09.873Z,1007.5
2023-03-29T10:26:09.870Z,1007.5
2023-03-29T10:27:09.886Z,1007.5
2023-03-29T10:28:09.883Z,1007.5
2023-03-29T10:29:09.892Z,1007.5
2023-03-29T10:30:09.907Z,1007.5
2023-03-29T10:31:09.956Z,1007.5
2023-03-29T10:32:10.008Z,1007.5
2023-03-29T10:33:09.986Z,1007.5
2023-03-29T10:34:09.962Z,1007.3
2023-03-29T10:35:09.932Z,1007.5
2023-03-29T10:36:10.017Z,1007.4
2023-03-29T10:37:09.943Z,1007.4
2023-03-29T10:38:09.943Z,1007.5
2023-03-29T10:39:09.959Z,1007.4
2023-03-29T10:40:09.970Z,1007.5
2023-03-29T10:41:10.007Z,1007.5
2023-03-29T10:42:09.971Z,1007.5
2023-03-29T10:43:09.972Z,1007.4
2023-03-29T10:44:10.010Z,1007.4
2023-03-29T10:45:10.024Z,1007.4
2023-03-29T10:46:10.089Z,1007.3
2023-03-29T10:47:10.006Z,1007.3
2023-03-29T10:48:10.158Z,1007.3
2023-03-29T10:49:10.014Z,1007.3
2023-03-29T10:50:10.027Z,1007.4
2023-03-29T10:51:10.040Z,1007.3
2023-03-29T10:52:10.030Z,1007.3
2023-03-29T10:53:10.060Z,1007.3
2023-03-29T10:54:10.064Z,1007.3
2023-03-29T10:55:10.052Z,1007.3
2023-03-29T10:56:10.064Z,1007.3
2023-03-29T10:57:10.177Z,1007.3
2023-03-29T10:58:10.068Z,1007.3
2023-03-29T10:59:10.107Z,1007.3
2023-03-29T11:00:10.091Z,1007.3
2023-03-29T11:01:10.143Z,1007.3
2023-03-29T11:02:10.096Z,1007.4
2023-03-29T11:03:10.282Z,1007.3
2023-03-29T11:04:10.218Z,1007.4
2023-03-29T11:05:10.114Z,1007.4
2023-03-29T11:06:10.116Z,1007.4
2023-03-29T11:07:10.125Z,1007.4
2023-03-29T11:08:10.132Z,1007.4
2023-03-29T11:09:10.151Z,1007.4
2023-03-29T11:10:10.159Z,1007.4
2023-03-29T11:11:10.170Z,1007.3
2023-03-29T11:12:16.580Z,1007.4
2023-03-29T11:13:10.166Z,1007.3
2023-03-29T11:14:10.180Z,1007.4
2023-03-29T11:15:10.183Z,1007.4
2023-03-29T11:16:10.266Z,1007.3
2023-03-29T11:17:10.191Z,1007.4
2023-03-29T11:18:10.282Z,1007.3
2023-03-29T11:19:10.216Z,1007.3
2023-03-29T11:20:10.212Z,1007.2
2023-03-29T11:21:11.073Z,1007.3
2023-03-29T11:22:10.224Z,1007.1
2023-03-29T11:23:10.230Z,1007.1
2023-03-29T11:24:10.230Z,1007.0
2023-03-29T11:25:10.286Z,1007.1
2023-03-29T11:26:10.253Z,1007.1
2023-03-29T11:27:10.260Z,1007.1
2023-03-29T11:28:10.269Z,1007.1
2023-03-29T11:29:10.277Z,1007.1
2023-03-29T11:30:10.496Z,1007.1
2023-03-29T11:31:10.387Z,1007.1
2023-03-29T11:32:10.540Z,1007.2
2023-03-29T11:33:10.312Z,1007.2
2023-03-29T11:34:10.307Z,1007.1
2023-03-29T11:35:10.316Z,1007.1
2023-03-29T11:36:10.410Z,1007.2
2023-03-29T11:37:10.368Z,1007.2
2023-03-29T11:38:10.512Z,1007.2
2023-03-29T11:39:10.342Z,1007.2
2023-03-29T11:40:10.352Z,1007.3
2023-03-29T11:41:10.361Z,1007.2
2023-03-29T11:42:10.369Z,1007.1
2023-03-29T11:43:10.380Z,1007.2
2023-03-29T11:44:10.377Z,1007.1
2023-03-29T11:45:10.384Z,1007.2
2023-03-29T11:46:10.474Z,1007.2
2023-03-29T11:47:10.395Z,1007.3
2023-03-29T11:48:10.462Z,1007.2
2023-03-29T11:49:10.412Z,1007.2
2023-03-29T11:50:10.522Z,1007.2
2023-03-29T11:51:10.440Z,1007.3
2023-03-29T11:52:10.444Z,1007.2
2023-03-29T11:53:10.451Z,1007.2
2023-03-29T11:54:10.465Z,1007.2
2023-03-29T11:55:10.483Z,1007.2
2023-03-29T11:56:10.470Z,1007.2
2023-03-29T11:57:10.570Z,1007.2
2023-03-29T11:58:10.491Z,1007.2
2023-03-29T11:59:10.580Z,1007.2
2023-03-29T12:00:10.667Z,1007.2
2023-03-29T12:01:10.508Z,1007.2
2023-03-29T12:02:10.628Z,1007.2
2023-03-29T12:03:10.770Z,1007.2
2023-03-29T12:04:10.663Z,1007.2
2023-03-29T12:05:10.542Z,1007.2
2023-03-29T12:06:10.560Z,1007.3
2023-03-29T12:07:10.683Z,1007.3
2023-03-29T12:08:10.577Z,1007.3
2023-03-29T12:09:10.581Z,1007.3
2023-03-29T12:10:10.604Z,1007.2
2023-03-29T12:11:10.657Z,1007.2
2023-03-29T12:12:10.609Z,1007.2
2023-03-29T12:13:10.623Z,1007.2
2023-03-29T12:14:10.625Z,1007.2
2023-03-29T12:15:10.629Z,1007.2
2023-03-29T12:16:10.693Z,1007.2
2023-03-29T12:17:10.653Z,1007.2
2023-03-29T12:18:10.731Z,1007.2
2023-03-29T12:19:10.653Z,1007.2
2023-03-29T12:20:10.681Z,1007.2
2023-03-29T12:21:10.675Z,1007.2
2023-03-29T12:22:10.700Z,1007.2
2023-03-29T12:23:10.675Z,1007.2
2023-03-29T12:24:10.686Z,1007.2
2023-03-29T12:25:10.706Z,1007.2
2023-03-29T12:26:10.707Z,1007.2
2023-03-29T12:27:10.703Z,1007.1
2023-03-29T12:28:10.707Z,1007.2
2023-03-29T12:29:10.709Z,1007.2
2023-03-29T12:30:10.724Z,1007.2
2023-03-29T12:31:10.732Z,1007.2
2023-03-29T12:32:10.891Z,1007.0
2023-03-29T12:33:13.659Z,1007.2
2023-03-29T12:34:10.757Z,1007.1
2023-03-29T12:35:10.801Z,1007.1
2023-03-29T12:36:10.982Z,1007.1
2023-03-29T12:37:10.764Z,1007.1
2023-03-29T12:38:10.776Z,1007.1
2023-03-29T12:39:10.785Z,1007.0
2023-03-29T12:40:10.800Z,1007.0
2023-03-29T12:41:10.793Z,1007.1
2023-03-29T12:42:10.804Z,1007.1
2023-03-29T12:43:10.810Z,1007.1
2023-03-29T12:44:10.961Z,1007.1
2023-03-29T12:45:10.820Z,1007.1
2023-03-29T12:46:10.900Z,1007.1